Status Flugplatz

Der Flugplatz ist offen
PPR Regelung ! PJE !!!

123.15 MHz
RWY 05/23

flüger beizli - Öffnungszeiten
Freitag ab 16:00
Samstag +Sonntag ab 11:00
Bei schönem Wetter öffnen wir früher! Tel.: 079 234 07 74
[source: ADDS]
METAR
LSZB 172020Z 24007KT 180V280 9999 BKN050 BKN070 03/M04 Q1018 NOSIG =
TAF
TAF LSZB 171425Z 1715/1724 25010KT 9999 SCT030 BKN060 TEMPO 1715/1724 28015G25KT 3000 SHSN SCT020TCU BKN030 PROB40 TEMPO 1715/1718 1500 SHSN BKN012 =

 


 

[source: ADDS]
METAR
LSGC 172020Z AUTO 24011KT 9999 BKN011 M02/M03 Q1016 REFZRA =
TAF
TAF LSGC 171425Z 1715/1724 27015KT 9999 BKN015 TEMPO 1718/1724 0300 +SHSN VV002 =

 


 

[source: ADDS]
METAR
LFSB 172000Z 24014KT 9999 FEW050 BKN060 BKN180 04/M02 Q1016 TEMPO 27020G30KT -SHRA FEW030TCU =
TAF
TAF LFSB 171700Z 1718/1818 25015G25KT 9999 FEW040 BKN070 TEMPO 1718/1724 27020G30KT -SHRA FEW030TCU PROB30 TEMPO 1718/1722 3000 SHRASN BKN010 FEW030CB BECMG 1805/1807 BKN035 BECMG 1809/1812 26020G35KT PROB30 TEMPO 1814/1818 26020G45KT =

Wetter Kappelen

 


 

[source: ADDS]
METAR
LSZG 172020Z AUTO 24005KT 9999 BKN043 02/M01 Q1018 RESN =
TAF
TAF LSZG 171425Z 1715/1724 26015G30KT 9999 FEW030 SCT050 TEMPO 1715/1721 2000 SHGSSN BKN012TCU PROB30 TEMPO 1715/1718 1200 TSGSSN SCT012CB TEMPO 1721/1724 4500 BKN010 =
SR / SS: 07:12 / 16:12 UTC ( 2018-01-17)

 


 

Flugplatz Biel-Kappelen LSZP - 123.15MHz - 032 384 46 84

Email: Diese E-Mail-Adresse ist vor Spambots geschützt! Zur Anzeige muss JavaScript eingeschaltet sein!
www.lszp.ch
2017 © by mb

Zum Anfang